Time;durP1;ratioP1;P1;durP2;ratioP2;P2;SDS_P1;SDS_P2;PMS_P1;PMS_P2;Temp;Humidity;BMP_temperature;BMP_pressure;BME280_temperature;BME280_humidity;BME280_pressure;Samples;Min_cycle;Max_cycle;Signal;HPM_P1;HPM_P2
2021/04/24 00:01:31;;;;;;;7.07;4.60;;;;;;;9.30;44.78;97401.00;4972538;28;20617;-70
2021/04/24 00:03:58;;;;;;;6.93;4.20;;;;;;;9.25;44.75;97404.19;4955198;28;20708;-74
2021/04/24 00:06:24;;;;;;;9.40;4.80;;;;;;;9.26;44.45;97405.00;4972619;28;20212;-74
2021/04/24 00:08:50;;;;;;;7.33;5.20;;;;;;;9.21;44.13;97400.38;4972288;28;20195;-74
2021/04/24 00:11:15;;;;;;;6.40;4.93;;;;;;;9.30;44.58;97401.00;4972176;28;20189;-74
2021/04/24 00:13:41;;;;;;;8.07;5.47;;;;;;;9.22;44.33;97395.97;4971853;28;20192;-73
2021/04/24 00:16:06;;;;;;;8.00;4.73;;;;;;;9.19;44.62;97395.34;4972647;28;20638;-74
2021/04/24 00:18:31;;;;;;;8.03;4.83;;;;;;;9.12;45.11;97396.38;4955226;28;20185;-71
2021/04/24 00:20:57;;;;;;;8.77;5.20;;;;;;;9.12;44.92;97389.34;4972540;28;20207;-75
2021/04/24 00:23:22;;;;;;;6.67;4.30;;;;;;;9.05;44.73;97401.59;4972922;28;20243;-75
2021/04/24 00:25:47;;;;;;;11.97;5.33;;;;;;;9.06;45.22;97394.56;4971700;28;20187;-73
2021/04/24 00:28:13;;;;;;;8.10;4.97;;;;;;;9.03;45.33;97387.91;4972405;28;20192;-74
2021/04/24 00:30:39;;;;;;;8.97;4.97;;;;;;;8.93;45.38;97394.56;4971796;28;20180;-74
2021/04/24 00:33:06;;;;;;;6.03;4.40;;;;;;;8.85;45.52;97390.34;4972886;28;20189;-74
2021/04/24 00:35:32;;;;;;;10.67;4.90;;;;;;;8.67;45.97;97396.16;4972182;28;20180;-71
2021/04/24 00:37:57;;;;;;;9.57;5.40;;;;;;;8.62;46.55;97382.88;4954819;28;20550;-74
2021/04/24 00:40:23;;;;;;;34.10;7.07;;;;;;;8.59;46.65;97385.88;4954899;28;20612;-73
2021/04/24 00:42:49;;;;;;;6.30;4.60;;;;;;;8.65;46.77;97379.06;4975489;28;20199;-75
2021/04/24 00:45:18;;;;;;;8.03;4.60;;;;;;;8.71;46.38;97376.44;4976770;28;20220;-74
2021/04/24 00:47:44;;;;;;;10.73;5.20;;;;;;;8.75;46.36;97371.63;4958164;28;20189;-74
2021/04/24 00:50:15;;;;;;;12.50;4.70;;;;;;;8.68;46.38;97368.22;4961300;28;20259;-74
2021/04/24 00:52:40;;;;;;;7.13;4.73;;;;;;;8.59;46.45;97372.81;4957656;28;20177;-74
2021/04/24 00:55:06;;;;;;;6.70;4.00;;;;;;;8.46;46.75;97364.97;4975862;28;20701;-74
2021/04/24 00:57:32;;;;;;;4.13;3.47;;;;;;;8.54;47.14;97366.56;4957521;28;20311;-71
2021/04/24 00:59:58;;;;;;;6.50;4.47;;;;;;;8.59;46.45;97359.75;4975074;28;20211;-74
2021/04/24 01:02:23;;;;;;;4.07;3.37;;;;;;;8.61;47.00;97357.75;4975478;28;20646;-73
2021/04/24 01:04:49;;;;;;;4.47;3.27;;;;;;;8.58;46.93;97365.19;4974693;28;20665;-74
2021/04/24 01:07:14;;;;;;;7.07;3.30;;;;;;;8.48;47.48;97359.53;4975620;28;20199;-75
2021/04/24 01:09:41;;;;;;;4.20;3.10;;;;;;;8.53;47.21;97362.34;4975705;28;20239;-74
2021/04/24 01:12:07;;;;;;;6.30;3.20;;;;;;;8.42;47.93;97357.72;4975714;28;20540;-75
2021/04/24 01:14:33;;;;;;;5.47;3.30;;;;;;;8.39;47.99;97358.13;4975774;28;20665;-72
2021/04/24 01:16:58;;;;;;;2.90;2.50;;;;;;;8.32;48.21;97361.53;4975270;28;20187;-74
2021/04/24 01:19:25;;;;;;;5.57;3.10;;;;;;;8.30;48.14;97354.91;4975764;28;20216;-75
2021/04/24 01:21:52;;;;;;;7.03;2.60;;;;;;;8.29;48.11;97354.06;4957627;28;20188;-75
2021/04/24 01:24:21;;;;;;;3.37;2.30;;;;;;;8.20;47.66;97344.78;4975580;28;20560;-74
2021/04/24 01:26:47;;;;;;;2.07;1.77;;;;;;;8.09;48.17;97349.78;4975045;28;20180;-75
2021/04/24 01:29:13;;;;;;;2.53;2.30;;;;;;;8.12;48.70;97346.78;4958053;28;20184;-75
2021/04/24 01:31:39;;;;;;;3.50;2.00;;;;;;;8.18;48.83;97346.81;4974471;28;20630;-74
2021/04/24 01:34:07;;;;;;;3.97;2.20;;;;;;;8.22;47.94;97352.44;4975692;28;20192;-76
2021/04/24 01:36:32;;;;;;;2.50;2.00;;;;;;;8.21;48.10;97348.22;4975625;28;20176;-76
2021/04/24 01:38:58;;;;;;;2.50;1.93;;;;;;;8.15;47.94;97338.56;4974384;28;20735;-76
2021/04/24 01:41:25;;;;;;;2.63;2.30;;;;;;;8.17;48.30;97347.81;4974988;28;20592;-76
2021/04/24 01:43:54;;;;;;;2.20;2.00;;;;;;;8.23;47.92;97347.03;4974012;28;20200;-75
2021/04/24 01:46:20;;;;;;;2.47;2.27;;;;;;;8.32;47.93;97347.66;4958189;28;20192;-76
2021/04/24 01:48:46;;;;;;;3.17;2.87;;;;;;;8.36;47.39;97350.69;4974204;28;20196;-76
2021/04/24 01:51:12;;;;;;;3.53;2.30;;;;;;;8.19;48.29;97345.78;4975466;28;20203;-76
2021/04/24 01:53:38;;;;;;;6.37;2.00;;;;;;;8.06;48.81;97343.16;4956086;28;20279;-71
2021/04/24 01:56:04;;;;;;;3.27;2.13;;;;;;;7.90;49.73;97339.09;4973556;28;20610;-77
2021/04/24 01:58:29;;;;;;;2.60;2.40;;;;;;;7.93;49.71;97343.09;4975040;28;20642;-75
2021/04/24 02:00:58;;;;;;;3.67;2.30;;;;;;;7.89;49.97;97342.72;4974001;28;20184;-75
2021/04/24 02:03:24;;;;;;;2.90;2.10;;;;;;;7.84;50.11;97341.69;4974255;28;20212;-74
2021/04/24 02:05:50;;;;;;;2.00;1.90;;;;;;;7.79;50.14;97341.47;4974230;28;20672;-74
2021/04/24 02:08:45;;;;;;;2.13;2.03;;;;;;;7.75;49.04;97341.03;4974773;28;20205;-75
2021/04/24 02:11:11;;;;;;;3.97;2.13;;;;;;;7.80;49.13;97343.84;4951850;28;20197;-77
2021/04/24 02:13:43;;;;;;;3.33;2.50;;;;;;;7.86;48.83;97340.47;4974431;28;20204;-71
2021/04/24 02:16:11;;;;;;;3.10;2.53;;;;;;;7.83;49.97;97338.25;4974712;28;20185;-76
2021/04/24 02:18:37;;;;;;;2.23;2.03;;;;;;;7.79;50.38;97339.66;4973932;28;20177;-70
2021/04/24 02:21:04;;;;;;;2.27;2.13;;;;;;;7.60;51.16;97337.75;4974392;28;20192;-74
2021/04/24 02:23:38;;;;;;;4.47;2.20;;;;;;;7.57;51.47;97332.94;4974698;28;20196;-73
2021/04/24 02:26:05;;;;;;;2.37;2.17;;;;;;;7.56;50.89;97333.13;4974814;28;20180;-75
2021/04/24 02:28:30;;;;;;;3.13;2.20;;;;;;;7.49;51.08;97333.09;4974625;28;20181;-76
2021/04/24 02:30:56;;;;;;;2.10;2.00;;;;;;;7.40;51.13;97336.88;4973933;28;20189;-76
2021/04/24 02:33:21;;;;;;;2.50;2.03;;;;;;;7.43;51.02;97333.88;4974560;28;20212;-76
2021/04/24 02:35:55;;;;;;;1.73;1.63;;;;;;;7.39;51.35;97336.06;4973077;28;20196;-74
2021/04/24 02:38:30;;;;;;;2.40;2.20;;;;;;;7.37;51.91;97332.84;4957168;28;20173;-74
2021/04/24 02:40:58;;;;;;;3.23;2.43;;;;;;;7.30;51.40;97326.00;4973501;28;20176;-73
2021/04/24 02:43:24;;;;;;;2.43;2.20;;;;;;;7.35;51.36;97332.25;4974143;28;20188;-73
2021/04/24 02:45:49;;;;;;;2.30;2.10;;;;;;;7.34;51.63;97328.00;4973578;28;20199;-74
2021/04/24 02:48:16;;;;;;;2.30;2.10;;;;;;;7.31;51.61;97330.19;4973599;28;20232;-73
2021/04/24 02:50:42;;;;;;;2.77;2.23;;;;;;;7.28;51.93;97325.38;4973457;28;20193;-73
2021/04/24 02:53:07;;;;;;;3.83;2.10;;;;;;;7.21;52.45;97316.69;4973241;28;20610;-73
2021/04/24 02:55:33;;;;;;;2.70;2.20;;;;;;;7.19;52.41;97327.31;4956860;28;20705;-73
2021/04/24 02:57:58;;;;;;;2.37;2.00;;;;;;;7.25;52.18;97323.94;4971911;28;20228;-73
2021/04/24 03:00:25;;;;;;;2.93;2.10;;;;;;;7.19;52.24;97319.50;4974214;28;20295;-74
2021/04/24 03:03:05;;;;;;;2.90;2.00;;;;;;;7.19;52.77;97322.09;4972537;28;20208;-73
2021/04/24 03:05:33;;;;;;;2.33;1.80;;;;;;;7.08;52.60;97333.06;4973660;28;20189;-73
2021/04/24 03:07:59;;;;;;;3.53;2.53;;;;;;;7.09;52.35;97329.44;4973431;28;20211;-75
2021/04/24 03:10:25;;;;;;;2.33;2.13;;;;;;;7.16;52.12;97334.72;4973959;28;20224;-74
2021/04/24 03:12:52;;;;;;;3.00;2.13;;;;;;;7.12;52.19;97318.66;4972813;28;20185;-75
2021/04/24 03:15:17;;;;;;;2.53;1.83;;;;;;;7.28;51.62;97320.16;4956577;28;20276;-74
2021/04/24 03:17:43;;;;;;;2.63;2.23;;;;;;;7.13;52.44;97312.47;4972539;28;20264;-74
2021/04/24 03:20:11;;;;;;;2.67;2.23;;;;;;;7.07;52.92;97324.47;4973593;28;20252;-75
2021/04/24 03:22:36;;;;;;;2.90;2.33;;;;;;;7.02;52.99;97321.59;4956365;28;20604;-75
2021/04/24 03:25:05;;;;;;;2.57;2.37;;;;;;;6.99;53.61;97315.97;4955217;28;20181;-75
2021/04/24 03:27:30;;;;;;;2.53;2.10;;;;;;;6.94;53.51;97313.13;4973254;28;20189;-75
2021/04/24 03:29:56;;;;;;;2.43;2.00;;;;;;;6.95;53.72;97312.13;4972913;28;20183;-78
2021/04/24 03:32:21;;;;;;;2.70;2.37;;;;;;;6.92;54.05;97310.69;4972803;28;20219;-77
2021/04/24 03:34:46;;;;;;;4.00;2.90;;;;;;;6.84;54.89;97310.06;4955123;28;20185;-77
2021/04/24 03:37:12;;;;;;;3.83;2.67;;;;;;;6.76;55.44;97310.19;4973124;28;20231;-76
2021/04/24 03:39:37;;;;;;;2.23;2.03;;;;;;;6.69;55.71;97304.91;4972978;28;20216;-72
2021/04/24 03:42:03;;;;;;;3.53;2.80;;;;;;;6.68;55.56;97309.34;4955065;28;20193;-76
2021/04/24 03:44:28;;;;;;;5.00;2.60;;;;;;;6.68;55.78;97313.75;4973398;28;20193;-76
2021/04/24 03:46:53;;;;;;;3.23;2.53;;;;;;;6.66;55.30;97306.13;4972321;28;20204;-76
2021/04/24 03:49:19;;;;;;;2.33;2.13;;;;;;;6.62;55.88;97304.09;4973234;28;20235;-75
2021/04/24 03:51:44;;;;;;;2.63;2.43;;;;;;;6.57;56.00;97304.66;4972281;28;20263;-74
2021/04/24 03:54:10;;;;;;;2.27;2.03;;;;;;;6.55;55.53;97303.22;4973259;28;20272;-75
2021/04/24 03:56:35;;;;;;;2.97;2.13;;;;;;;6.56;55.84;97308.25;4972535;28;20231;-75
2021/04/24 03:59:01;;;;;;;2.40;2.20;;;;;;;6.56;55.98;97307.44;4954838;28;20819;-76
2021/04/24 04:01:26;;;;;;;7.50;2.57;;;;;;;6.59;55.62;97312.25;4972944;28;20180;-76
2021/04/24 04:03:52;;;;;;;3.17;2.37;;;;;;;6.73;55.61;97319.19;4971764;28;20263;-76
2021/04/24 04:06:17;;;;;;;2.77;2.57;;;;;;;6.75;55.12;97311.97;4972922;28;20180;-76
2021/04/24 04:08:42;;;;;;;3.47;2.30;;;;;;;6.69;55.71;97310.94;4972237;28;20661;-72
2021/04/24 04:11:08;;;;;;;5.07;2.40;;;;;;;6.72;55.67;97314.16;4972510;28;20636;-76
2021/04/24 04:13:33;;;;;;;2.70;2.17;;;;;;;6.62;56.30;97307.50;4973206;28;20256;-76
2021/04/24 04:15:59;;;;;;;3.10;2.17;;;;;;;6.62;56.43;97314.50;4971788;28;20661;-77
2021/04/24 04:18:24;;;;;;;2.90;1.77;;;;;;;6.55;56.49;97314.44;4973011;28;20576;-76
2021/04/24 04:20:54;;;;;;;3.67;2.53;;;;;;;6.56;56.62;97323.88;4953929;28;20196;-75
2021/04/24 04:23:30;;;;;;;2.70;2.20;;;;;;;6.54;56.84;97322.44;4972500;28;20778;-75
2021/04/24 04:25:56;;;;;;;2.00;1.90;;;;;;;6.58;56.37;97328.88;4971886;28;20200;-75
2021/04/24 04:28:22;;;;;;;2.47;1.93;;;;;;;6.51;56.36;97317.63;4972991;28;20192;-75
2021/04/24 04:30:49;;;;;;;3.07;2.23;;;;;;;6.50;56.33;97332.44;4971762;28;20283;-76
2021/04/24 04:33:14;;;;;;;4.83;2.33;;;;;;;6.48;56.53;97333.59;4955347;28;20196;-75
2021/04/24 04:35:41;;;;;;;3.57;1.90;;;;;;;6.51;56.37;97330.63;4972400;28;20189;-72
2021/04/24 04:38:07;;;;;;;5.20;2.50;;;;;;;6.48;56.60;97338.81;4971697;28;20172;-76
2021/04/24 04:40:33;;;;;;;2.50;2.30;;;;;;;6.58;56.31;97331.47;4955319;28;20201;-75
2021/04/24 04:42:59;;;;;;;2.70;2.33;;;;;;;6.58;56.61;97341.88;4971708;28;20193;-76
2021/04/24 04:45:25;;;;;;;2.90;2.03;;;;;;;6.61;56.35;97331.13;4955599;28;20191;-76
2021/04/24 04:47:51;;;;;;;3.97;2.20;;;;;;;6.69;56.31;97336.19;4971534;28;20708;-75
2021/04/24 04:50:21;;;;;;;3.23;2.53;;;;;;;6.77;56.27;97336.06;4971727;28;20188;-75
2021/04/24 04:52:47;;;;;;;3.30;2.07;;;;;;;6.74;56.62;97335.63;4971376;28;20176;-74
2021/04/24 04:55:13;;;;;;;2.37;2.00;;;;;;;6.89;56.28;97341.56;4972083;28;20590;-75
2021/04/24 04:57:39;;;;;;;2.27;2.07;;;;;;;7.16;55.84;97337.31;4971202;28;20256;-76
2021/04/24 05:00:09;;;;;;;2.50;2.10;;;;;;;7.45;55.60;97337.91;4971346;28;20243;-75
2021/04/24 05:02:34;;;;;;;3.13;2.37;;;;;;;7.80;54.93;97343.09;4971799;28;20239;-74
2021/04/24 05:05:00;;;;;;;4.67;2.70;;;;;;;8.20;53.87;97342.19;4971115;28;20193;-73
2021/04/24 05:07:25;;;;;;;3.67;2.17;;;;;;;8.46;52.86;97346.69;4972371;28;20251;-74
2021/04/24 05:09:51;;;;;;;2.60;2.40;;;;;;;8.83;51.55;97347.91;4971231;28;20236;-74
2021/04/24 05:12:16;;;;;;;2.50;2.30;;;;;;;8.88;51.24;97342.88;4972478;28;20199;-76
2021/04/24 05:14:42;;;;;;;3.10;2.63;;;;;;;9.26;50.30;97350.06;4971696;28;20212;-71
2021/04/24 05:17:09;;;;;;;2.50;2.30;;;;;;;9.43;50.32;97348.63;4971541;28;20196;-74
2021/04/24 05:19:34;;;;;;;2.83;2.13;;;;;;;9.43;50.09;97349.44;4954514;28;20205;-74
2021/04/24 05:22:00;;;;;;;2.97;2.67;;;;;;;9.50;49.99;97346.81;4953884;28;20951;-75
2021/04/24 05:24:25;;;;;;;2.60;2.40;;;;;;;9.61;50.05;97343.56;4954900;28;20185;-76
2021/04/24 05:26:51;;;;;;;4.23;2.90;;;;;;;9.71;49.49;97338.69;4954577;28;20701;-73
2021/04/24 05:29:16;;;;;;;2.80;2.33;;;;;;;9.78;49.80;97349.13;4975448;28;20180;-73
2021/04/24 05:31:43;;;;;;;2.93;2.43;;;;;;;9.87;49.46;97340.84;4975396;28;20532;-71
2021/04/24 05:34:08;;;;;;;29.23;12.97;;;;;;;10.03;48.90;97345.59;4974452;28;20185;-73
2021/04/24 05:36:33;;;;;;;31.50;14.37;;;;;;;10.15;48.42;97352.78;4975545;28;20184;-74
2021/04/24 05:38:59;;;;;;;12.87;7.27;;;;;;;10.20;48.23;97356.41;4974786;28;20205;-76
2021/04/24 05:41:24;;;;;;;8.13;3.77;;;;;;;10.23;48.10;97352.59;4975281;28;20184;-77
2021/04/24 05:43:54;;;;;;;4.90;3.10;;;;;;;10.43;47.07;97363.75;4974482;28;20196;-74
2021/04/24 05:46:21;;;;;;;4.60;2.97;;;;;;;10.67;46.75;97364.81;4975450;28;20649;-76
2021/04/24 05:48:47;;;;;;;3.33;2.93;;;;;;;10.45;47.11;97363.53;4974510;28;20275;-71
2021/04/24 05:51:13;;;;;;;3.10;2.80;;;;;;;10.81;47.88;97363.72;4975146;28;20695;-70
2021/04/24 05:53:39;;;;;;;3.67;2.60;;;;;;;10.73;47.16;97361.34;4957987;28;20185;-70
2021/04/24 05:56:05;;;;;;;2.93;2.73;;;;;;;10.96;46.38;97358.13;4973719;28;20232;-74
2021/04/24 05:58:30;;;;;;;3.60;3.07;;;;;;;11.15;45.54;97359.75;4974729;28;20356;-74
2021/04/24 06:00:56;;;;;;;3.57;2.90;;;;;;;11.35;45.28;97354.34;4973877;28;20211;-74
2021/04/24 06:03:22;;;;;;;5.60;3.10;;;;;;;11.15;47.05;97357.94;4974697;28;20192;-73
2021/04/24 06:05:47;;;;;;;5.10;3.30;;;;;;;11.30;45.97;97359.44;4974035;28;20413;-73
2021/04/24 06:08:14;;;;;;;3.07;2.77;;;;;;;11.38;45.61;97356.53;4957654;28;20181;-75
2021/04/24 06:10:39;;;;;;;3.87;2.90;;;;;;;11.51;45.23;97362.44;4957958;28;20938;-73
2021/04/24 06:13:04;;;;;;;5.17;3.30;;;;;;;11.53;44.76;97362.25;4974087;28;20184;-74
2021/04/24 06:15:30;;;;;;;4.90;3.07;;;;;;;11.59;44.39;97356.91;4974787;28;20181;-73
2021/04/24 06:17:55;;;;;;;4.20;2.97;;;;;;;11.72;44.61;97355.16;4973738;28;20688;-74
2021/04/24 06:20:21;;;;;;;6.17;3.13;;;;;;;11.75;44.53;97357.38;4954229;28;20212;-73
2021/04/24 06:22:46;;;;;;;4.03;2.90;;;;;;;11.90;44.43;97358.63;4974180;28;20228;-69
2021/04/24 06:25:15;;;;;;;5.00;3.10;;;;;;;11.92;44.22;97356.56;4957339;28;20199;-74
2021/04/24 06:27:40;;;;;;;6.90;2.80;;;;;;;12.01;44.49;97359.69;4974815;28;20192;-74
2021/04/24 06:30:07;;;;;;;4.13;3.23;;;;;;;12.03;44.67;97362.91;4956475;28;20364;-75
2021/04/24 06:32:33;;;;;;;3.90;3.50;;;;;;;12.28;44.00;97357.53;4956907;28;20209;-73
2021/04/24 06:34:58;;;;;;;3.27;2.80;;;;;;;12.28;43.66;97353.06;4973626;28;20193;-74
2021/04/24 06:37:24;;;;;;;3.87;2.97;;;;;;;12.33;43.49;97361.09;4973889;28;20664;-74
2021/04/24 06:39:50;;;;;;;3.80;3.03;;;;;;;12.32;42.85;97358.66;4972556;28;20201;-74
2021/04/24 06:42:16;;;;;;;4.27;2.90;;;;;;;12.12;42.81;97363.41;4974546;28;20180;-73
2021/04/24 06:44:43;;;;;;;3.50;3.20;;;;;;;11.48;42.91;97368.13;4973903;28;20272;-73
2021/04/24 06:47:09;;;;;;;5.20;3.10;;;;;;;11.35;43.55;97363.03;4973841;28;20184;-74
2021/04/24 06:49:34;;;;;;;3.70;2.90;;;;;;;11.12;42.93;97361.00;4940797;28;20177;-75
2021/04/24 06:51:59;;;;;;;5.37;3.20;;;;;;;10.63;44.58;97364.44;4956425;28;20345;-74
2021/04/24 06:54:25;;;;;;;3.27;2.97;;;;;;;11.14;44.07;97369.47;4973708;28;20184;-73
2021/04/24 06:56:50;;;;;;;3.90;3.20;;;;;;;10.86;44.96;97368.31;4972380;28;20797;-71
2021/04/24 06:59:16;;;;;;;3.40;2.87;;;;;;;11.07;44.51;97365.31;4956901;28;20205;-75
2021/04/24 07:01:41;;;;;;;3.40;3.10;;;;;;;11.21;43.61;97370.22;4956403;28;20705;-72
2021/04/24 07:04:06;;;;;;;4.27;2.50;;;;;;;11.35;43.70;97365.66;4939760;28;20235;-72
2021/04/24 07:06:32;;;;;;;3.33;2.77;;;;;;;10.93;44.23;97367.22;4973430;28;20217;-72
2021/04/24 07:08:57;;;;;;;3.13;2.83;;;;;;;11.45;43.77;97365.94;4964466;28;20572;-74
2021/04/24 07:11:22;;;;;;;4.30;3.03;;;;;;;11.79;42.88;97364.59;4973473;28;20211;-72
2021/04/24 07:13:48;;;;;;;4.03;3.30;;;;;;;11.80;42.61;97360.97;4972704;28;20261;-69
2021/04/24 07:16:13;;;;;;;3.63;2.90;;;;;;;11.97;42.86;97355.91;4973642;28;20185;-71
2021/04/24 07:18:40;;;;;;;5.13;3.23;;;;;;;12.06;42.81;97363.25;4973812;28;20618;-71
2021/04/24 07:21:06;;;;;;;3.00;2.70;;;;;;;11.94;42.52;97366.84;4972682;28;20825;-72
2021/04/24 07:23:33;;;;;;;3.53;2.80;;;;;;;12.49;42.22;97357.00;4973885;28;20380;-79
2021/04/24 07:26:00;;;;;;;4.33;2.80;;;;;;;12.68;41.02;97363.03;4972733;28;20193;-74
2021/04/24 07:28:25;;;;;;;3.00;2.80;;;;;;;12.72;42.32;97357.06;4973272;28;20713;-71
2021/04/24 07:30:51;;;;;;;3.77;3.13;;;;;;;12.51;43.47;97357.59;4972837;28;20188;-73
2021/04/24 07:33:16;;;;;;;8.47;3.73;;;;;;;12.44;44.22;97359.53;4973757;28;20189;-72
2021/04/24 07:35:42;;;;;;;4.77;3.30;;;;;;;12.66;43.38;97357.97;4973476;28;20189;-72
2021/04/24 07:38:07;;;;;;;3.70;3.10;;;;;;;12.58;43.97;97360.16;4971547;28;20275;-82
2021/04/24 07:40:33;;;;;;;4.33;3.40;;;;;;;12.57;43.67;97354.06;4955894;28;20201;-81
2021/04/24 07:42:58;;;;;;;4.73;2.93;;;;;;;12.64;43.64;97357.41;4955596;28;20183;-77
2021/04/24 07:45:24;;;;;;;4.00;3.07;;;;;;;12.95;41.82;97353.69;4973606;28;20212;-77
2021/04/24 07:47:49;;;;;;;4.47;3.67;;;;;;;12.88;42.97;97356.41;4955442;28;20195;-73
2021/04/24 07:50:19;;;;;;;3.70;3.40;;;;;;;13.03;41.96;97352.56;4955302;28;20633;-77
2021/04/24 07:52:47;;;;;;;3.30;3.00;;;;;;;13.20;40.87;97354.31;4973256;28;20184;-78
2021/04/24 07:55:13;;;;;;;4.57;3.50;;;;;;;13.07;39.55;97351.06;4972128;28;20185;-78
2021/04/24 07:57:39;;;;;;;3.23;2.97;;;;;;;13.18;39.40;97347.66;4971912;28;20240;-79
2021/04/24 08:00:06;;;;;;;4.00;3.30;;;;;;;13.06;40.66;97346.84;4971739;28;20205;-78
2021/04/24 08:02:32;;;;;;;3.77;3.37;;;;;;;12.74;40.46;97352.41;4972554;28;20630;-77
2021/04/24 08:04:57;;;;;;;5.80;3.73;;;;;;;12.58;41.93;97345.16;4971955;28;20331;-77
2021/04/24 08:07:23;;;;;;;4.80;3.23;;;;;;;13.12;40.72;97346.75;4973144;28;20201;-79
2021/04/24 08:09:48;;;;;;;4.83;4.10;;;;;;;13.07;41.54;97343.97;4972241;28;20194;-71
2021/04/24 08:12:14;;;;;;;6.07;3.53;;;;;;;12.90;40.59;97358.84;4954693;28;20216;-79
2021/04/24 08:14:39;;;;;;;4.47;3.50;;;;;;;13.13;40.39;97353.63;4972376;28;20200;-78
2021/04/24 08:17:05;;;;;;;4.00;3.00;;;;;;;13.54;38.91;97355.31;4954255;28;20192;-76
2021/04/24 08:19:31;;;;;;;4.63;3.67;;;;;;;13.61;39.35;97360.47;4972127;28;20208;-78
2021/04/24 08:21:56;;;;;;;3.70;3.40;;;;;;;13.74;39.04;97352.31;4971751;28;20188;-81
2021/04/24 08:24:22;;;;;;;5.87;3.67;;;;;;;13.64;39.29;97355.53;4972973;28;20709;-77
2021/04/24 08:26:48;;;;;;;4.90;4.23;;;;;;;13.48;40.07;97356.25;4972045;28;20227;-71
2021/04/24 08:29:13;;;;;;;4.67;3.03;;;;;;;13.59;38.61;97350.19;4955078;28;20209;-79
2021/04/24 08:31:42;;;;;;;4.57;3.97;;;;;;;13.89;38.40;97347.34;4972402;28;20304;-73
2021/04/24 08:34:07;;;;;;;5.23;3.60;;;;;;;13.80;38.01;97345.31;4971571;28;20199;-75
2021/04/24 08:36:33;;;;;;;4.13;3.30;;;;;;;13.63;38.48;97343.41;4955420;28;20188;-73
2021/04/24 08:38:59;;;;;;;5.03;3.17;;;;;;;13.95;38.31;97341.13;4971732;28;20212;-70
2021/04/24 08:41:24;;;;;;;4.13;3.50;;;;;;;13.72;37.84;97341.19;4972388;28;20519;-68
2021/04/24 08:43:56;;;;;;;4.40;4.00;;;;;;;13.64;37.74;97345.00;4970358;28;20839;-74
2021/04/24 08:46:23;;;;;;;5.67;3.63;;;;;;;14.19;36.94;97341.88;4972344;28;20173;-78
2021/04/24 08:48:51;;;;;;;4.17;3.30;;;;;;;14.12;36.92;97342.00;4972278;28;20267;-71
2021/04/24 08:51:17;;;;;;;4.23;3.67;;;;;;;13.80;37.22;97334.78;4972350;28;20196;-78
2021/04/24 08:53:43;;;;;;;4.80;3.73;;;;;;;14.33;36.27;97337.91;4954859;28;20189;-78
2021/04/24 08:56:08;;;;;;;5.33;3.70;;;;;;;14.53;36.49;97334.88;4953033;28;20235;-77
2021/04/24 08:58:34;;;;;;;3.23;2.97;;;;;;;14.41;37.21;97334.91;4971764;28;20654;-78
2021/04/24 09:00:59;;;;;;;4.73;3.90;;;;;;;14.38;36.63;97337.22;4970621;28;20673;-78
2021/04/24 09:03:25;;;;;;;5.33;3.90;;;;;;;14.36;37.03;97336.63;4974639;28;20239;-77
2021/04/24 09:05:53;;;;;;;4.50;3.60;;;;;;;14.21;37.38;97331.88;4975646;28;20192;-70
2021/04/24 09:08:24;;;;;;;9.63;4.07;;;;;;;14.53;35.86;97337.50;4975949;28;20192;-78
2021/04/24 09:10:50;;;;;;;3.87;3.33;;;;;;;14.64;35.73;97328.72;4958255;28;20277;-71
2021/04/24 09:13:21;;;;;;;5.33;3.60;;;;;;;14.37;35.29;97330.38;4975147;28;20181;-78
2021/04/24 09:15:48;;;;;;;5.30;3.70;;;;;;;14.24;35.50;97320.88;4975955;28;20646;-76
2021/04/24 09:18:13;;;;;;;4.73;3.80;;;;;;;14.25;36.02;97329.56;4975334;28;20184;-78
2021/04/24 09:20:45;;;;;;;4.57;3.80;;;;;;;14.26;35.42;97318.00;4974618;28;20204;-78
2021/04/24 09:23:12;;;;;;;3.90;3.60;;;;;;;14.33;35.62;97321.28;4975060;28;20268;-76
2021/04/24 09:25:41;;;;;;;5.53;4.17;;;;;;;14.35;35.25;97320.00;4975832;28;20188;-78
2021/04/24 09:28:09;;;;;;;3.70;3.40;;;;;;;14.32;34.79;97317.84;4974741;28;20271;-77
2021/04/24 09:30:37;;;;;;;3.63;3.33;;;;;;;14.28;35.72;97314.06;4975357;28;20185;-73
2021/04/24 09:33:11;;;;;;;3.63;3.07;;;;;;;14.32;35.44;97309.16;4975234;28;20316;-77
2021/04/24 09:35:41;;;;;;;6.30;3.80;;;;;;;14.32;34.04;97315.19;4958339;28;20180;-78
2021/04/24 09:38:08;;;;;;;4.90;3.57;;;;;;;14.20;32.80;97308.41;4974781;28;21831;-76
2021/04/24 09:40:34;;;;;;;4.87;3.47;;;;;;;14.18;32.73;97303.34;4975645;28;20203;-77
2021/04/24 09:43:07;;;;;;;4.87;3.77;;;;;;;14.08;33.02;97303.16;4972979;28;20196;-75
2021/04/24 09:45:38;;;;;;;4.27;3.87;;;;;;;13.98;33.09;97303.00;4974263;28;20181;-77
2021/04/24 09:48:04;;;;;;;4.97;3.40;;;;;;;14.19;32.04;97297.03;4957120;28;20267;-74
2021/04/24 09:50:35;;;;;;;6.50;3.27;;;;;;;14.32;31.88;97301.25;4974527;28;20705;-75
2021/04/24 09:53:15;;;;;;;5.17;3.87;;;;;;;14.31;31.88;97292.53;4973549;28;20193;-71
2021/04/24 09:55:40;;;;;;;5.17;3.97;;;;;;;14.30;31.91;97292.75;4974864;28;20184;-71
2021/04/24 09:58:24;;;;;;;4.47;3.40;;;;;;;14.26;32.86;97292.44;4973065;28;20574;-75
2021/04/24 10:00:50;;;;;;;4.50;3.80;;;;;;;14.31;32.76;97281.97;4974936;28;20279;-73
2021/04/24 10:03:35;;;;;;;4.70;3.63;;;;;;;14.44;32.50;97286.97;4974152;28;20649;-75
2021/04/24 10:06:22;;;;;;;4.70;3.30;;;;;;;14.73;32.50;97277.13;4970941;28;20184;-74
2021/04/24 10:09:07;;;;;;;4.63;3.73;;;;;;;14.75;31.80;97276.91;4973559;28;20261;-75
2021/04/24 10:11:32;;;;;;;3.93;3.53;;;;;;;14.81;31.34;97275.94;4944451;28;20239;-76
2021/04/24 10:13:58;;;;;;;5.07;3.63;;;;;;;14.89;31.88;97260.50;4969384;28;20609;-75
2021/04/24 10:16:42;;;;;;;4.27;3.50;;;;;;;14.89;30.42;97257.84;4973882;28;20283;-75
2021/04/24 10:19:13;;;;;;;4.67;3.50;;;;;;;14.87;30.41;97262.59;4973106;28;20204;-75
2021/04/24 10:21:40;;;;;;;3.53;3.23;;;;;;;14.89;30.49;97265.78;4974109;28;20642;-76
2021/04/24 10:24:06;;;;;;;5.73;4.30;;;;;;;14.93;31.00;97258.97;4973789;28;20227;-76
2021/04/24 10:26:33;;;;;;;3.60;3.30;;;;;;;14.97;30.19;97257.44;4974200;28;20193;-76
2021/04/24 10:29:00;;;;;;;3.67;3.37;;;;;;;15.00;28.90;97256.16;4973363;28;20218;-76
2021/04/24 10:31:27;;;;;;;3.30;3.00;;;;;;;15.02;29.86;97251.44;4974684;28;20275;-77
2021/04/24 10:33:54;;;;;;;5.23;3.47;;;;;;;15.17;30.62;97254.28;4973866;28;20539;-73
2021/04/24 10:36:20;;;;;;;6.57;4.03;;;;;;;15.09;31.84;97257.34;4973825;28;20185;-77
2021/04/24 10:38:48;;;;;;;4.07;3.60;;;;;;;15.23;32.00;97249.88;4974388;28;20541;-78
2021/04/24 10:41:15;;;;;;;4.07;3.63;;;;;;;15.36;30.69;97252.16;4956392;28;20181;-77
2021/04/24 10:43:41;;;;;;;5.60;4.40;;;;;;;15.32;31.78;97249.19;4974358;28;20188;-78
2021/04/24 10:46:23;;;;;;;4.33;3.90;;;;;;;15.32;30.57;97238.63;4973559;28;20330;-77
2021/04/24 10:48:48;;;;;;;4.77;3.50;;;;;;;15.22;31.04;97240.34;4974589;28;20537;-78
2021/04/24 10:51:14;;;;;;;7.03;4.57;;;;;;;15.52;32.27;97239.97;4969029;28;20209;-75
2021/04/24 10:53:39;;;;;;;5.27;4.40;;;;;;;15.44;30.29;97235.06;4973399;28;20177;-75
2021/04/24 10:56:04;;;;;;;94.83;76.73;;;;;;;15.52;31.15;97240.75;4969930;28;20981;-72
2021/04/24 10:58:32;;;;;;;13.83;8.87;;;;;;;15.68;30.53;97241.72;4967733;28;20188;-76
2021/04/24 11:01:03;;;;;;;6.40;4.53;;;;;;;15.60;29.76;97240.34;4972784;28;20215;-72
2021/04/24 11:03:34;;;;;;;6.20;3.60;;;;;;;15.43;29.40;97236.13;4973309;28;20239;-77
2021/04/24 11:06:17;;;;;;;6.77;3.93;;;;;;;15.46;29.74;97230.34;4972903;28;20566;-75
2021/04/24 11:08:44;;;;;;;23.83;21.73;;;;;;;15.66;29.87;97225.34;4973618;28;20259;-74
2021/04/24 11:11:10;;;;;;;4.93;4.20;;;;;;;15.91;29.55;97228.25;4971831;28;20184;-73
2021/04/24 11:13:45;;;;;;;5.93;4.10;;;;;;;16.14;28.82;97222.66;4973977;28;20177;-74
2021/04/24 11:16:12;;;;;;;4.63;3.50;;;;;;;15.99;28.55;97216.44;4939533;28;20196;-76
2021/04/24 11:18:40;;;;;;;4.83;4.17;;;;;;;16.07;27.59;97221.25;4973459;28;20184;-76
2021/04/24 11:21:08;;;;;;;4.90;3.88;;;;;;;15.91;27.93;97214.22;4972365;28;20697;-74
2021/04/24 11:23:38;;;;;;;5.53;4.13;;;;;;;16.06;31.29;97209.06;4973619;28;20231;-76
2021/04/24 11:26:18;;;;;;;4.65;4.00;;;;;;;16.06;28.99;97206.41;4969578;28;20513;-77
2021/04/24 11:29:10;;;;;;;4.47;3.85;;;;;;;16.01;28.38;97211.66;4975833;28;20177;-78
2021/04/24 11:32:06;;;;;;;6.10;4.60;;;;;;;15.89;28.50;97205.72;4976995;28;20454;-80
2021/04/24 11:34:41;;;;;;;4.35;3.95;;;;;;;16.10;28.49;97202.25;4959499;28;20279;-80
2021/04/24 11:37:21;;;;;;;4.70;4.05;;;;;;;15.82;27.84;97199.88;4973255;28;20520;-79